createdAt,value
2023-11-25T00:01:34.648Z,15.75
2023-11-25T00:04:03.295Z,15.00
2023-11-25T00:06:33.323Z,14.73
2023-11-25T00:09:02.574Z,15.93
2023-11-25T00:11:31.146Z,18.60
2023-11-25T00:14:00.058Z,17.17
2023-11-25T00:16:28.846Z,14.80
2023-11-25T00:18:57.436Z,13.88
2023-11-25T00:21:26.129Z,14.25
2023-11-25T00:23:56.100Z,14.25
2023-11-25T00:26:26.544Z,16.60
2023-11-25T00:29:01.198Z,17.90
2023-11-25T00:31:30.469Z,17.38
2023-11-25T00:33:59.566Z,18.58
2023-11-25T00:36:28.268Z,17.50
2023-11-25T00:39:00.756Z,17.38
2023-11-25T00:41:29.463Z,17.40
2023-11-25T00:43:58.107Z,18.92
2023-11-25T00:46:26.786Z,18.55
2023-11-25T00:48:55.796Z,17.42
2023-11-25T00:51:24.354Z,17.23
2023-11-25T00:53:52.879Z,17.30
2023-11-25T00:56:23.319Z,17.90
2023-11-25T00:58:52.504Z,17.90
2023-11-25T01:01:21.388Z,16.33
2023-11-25T01:03:50.033Z,17.77
2023-11-25T01:06:18.710Z,17.30
2023-11-25T01:08:47.487Z,16.85
2023-11-25T01:11:18.377Z,17.35
2023-11-25T01:13:48.395Z,17.17
2023-11-25T01:16:20.384Z,17.55
2023-11-25T01:18:49.100Z,16.17
2023-11-25T01:21:18.388Z,16.42
2023-11-25T01:23:47.223Z,15.05
2023-11-25T01:26:15.793Z,15.85
2023-11-25T01:28:44.558Z,16.02
2023-11-25T01:31:15.628Z,17.20
2023-11-25T01:33:44.727Z,15.93
2023-11-25T01:36:13.669Z,15.27
2023-11-25T01:38:42.284Z,18.02
2023-11-25T01:41:10.878Z,18.33
2023-11-25T01:43:39.484Z,18.88
2023-11-25T01:46:08.913Z,18.80
2023-11-25T01:48:40.030Z,18.05
2023-11-25T01:51:08.808Z,19.88
2023-11-25T01:53:39.883Z,22.17
2023-11-25T01:56:11.057Z,20.42
2023-11-25T01:58:41.233Z,18.45
2023-11-25T02:01:09.958Z,17.88
2023-11-25T02:03:41.103Z,18.35
2023-11-25T02:06:09.956Z,19.00
2023-11-25T02:08:38.550Z,18.70
2023-11-25T02:11:07.526Z,18.38
2023-11-25T02:13:36.128Z,18.25
2023-11-25T02:16:05.530Z,17.90
2023-11-25T02:18:34.362Z,19.50
2023-11-25T02:21:24.376Z,18.70
2023-11-25T02:23:54.632Z,18.20
2023-11-25T02:26:23.459Z,19.10
2023-11-25T02:28:53.539Z,19.23
2023-11-25T02:31:23.068Z,18.85
2023-11-25T02:33:51.890Z,19.10
2023-11-25T02:36:20.524Z,18.73
2023-11-25T02:38:50.522Z,17.98
2023-11-25T02:41:20.644Z,18.75
2023-11-25T02:43:49.490Z,18.50
2023-11-25T02:46:18.805Z,18.67
2023-11-25T02:48:47.506Z,18.00
2023-11-25T02:51:16.154Z,17.38
2023-11-25T02:53:45.306Z,17.73
2023-11-25T02:56:14.078Z,18.30
2023-11-25T02:58:44.110Z,19.05
2023-11-25T03:01:15.447Z,17.73
2023-11-25T03:03:49.712Z,19.63
2023-11-25T03:06:23.632Z,18.98
2023-11-25T03:08:53.446Z,19.13
2023-11-25T03:11:22.319Z,20.80
2023-11-25T03:13:52.387Z,19.77
2023-11-25T03:16:26.261Z,21.23
2023-11-25T03:18:55.142Z,21.83
2023-11-25T03:21:23.796Z,20.15
2023-11-25T03:23:53.594Z,19.83
2023-11-25T03:26:22.707Z,20.35
2023-11-25T03:28:52.844Z,20.27
2023-11-25T03:31:21.523Z,19.13
2023-11-25T03:33:50.828Z,19.80
2023-11-25T03:36:19.589Z,19.77
2023-11-25T03:38:48.132Z,18.48
2023-11-25T03:41:17.553Z,19.63
2023-11-25T03:43:46.139Z,18.48
2023-11-25T03:46:16.309Z,18.00
2023-11-25T03:48:44.844Z,19.23
2023-11-25T03:51:13.607Z,19.20
2023-11-25T03:53:42.283Z,18.83
2023-11-25T03:56:10.948Z,20.17
2023-11-25T03:58:39.461Z,19.65
2023-11-25T04:01:08.332Z,17.92
2023-11-25T04:03:38.834Z,19.83
2023-11-25T04:06:08.458Z,18.95
2023-11-25T04:08:36.999Z,22.05
2023-11-25T04:11:09.092Z,35.53
2023-11-25T04:13:38.833Z,52.25
2023-11-25T04:16:08.060Z,35.92
2023-11-25T04:18:39.143Z,37.15
2023-11-25T04:21:08.455Z,23.02
2023-11-25T04:23:37.530Z,23.13
2023-11-25T04:26:07.168Z,23.63
2023-11-25T04:28:36.019Z,20.80
2023-11-25T04:31:04.975Z,20.75
2023-11-25T04:33:36.282Z,25.17
2023-11-25T04:36:07.402Z,21.95
2023-11-25T04:38:36.272Z,20.33
2023-11-25T04:41:04.941Z,19.23
2023-11-25T04:43:33.586Z,18.75
2023-11-25T04:46:03.938Z,19.38
2023-11-25T04:48:32.745Z,18.75
2023-11-25T04:51:01.292Z,18.20
2023-11-25T04:53:31.305Z,20.20
2023-11-25T04:56:01.118Z,19.95
2023-11-25T04:58:29.672Z,18.15
2023-11-25T05:00:58.956Z,18.05
2023-11-25T05:03:27.941Z,19.58
2023-11-25T05:05:58.155Z,18.85
2023-11-25T05:08:26.690Z,19.95
2023-11-25T05:10:56.729Z,19.27
2023-11-25T05:13:25.302Z,19.00
2023-11-25T05:15:54.655Z,19.10
2023-11-25T05:18:23.211Z,15.65
2023-11-25T05:20:51.736Z,15.25
2023-11-25T05:23:20.249Z,12.75
2023-11-25T05:25:48.822Z,15.00
2023-11-25T05:28:20.075Z,14.68
2023-11-25T05:30:48.529Z,14.60
2023-11-25T05:33:17.162Z,14.02
2023-11-25T05:35:45.902Z,14.32
2023-11-25T05:38:14.635Z,15.43
2023-11-25T05:40:43.561Z,17.20
2023-11-25T05:43:13.140Z,15.60
2023-11-25T05:45:45.132Z,16.00
2023-11-25T05:48:14.098Z,14.20
2023-11-25T05:50:42.745Z,15.25
2023-11-25T05:53:11.738Z,15.15
2023-11-25T05:55:40.329Z,14.70
2023-11-25T05:58:09.247Z,15.32
2023-11-25T06:00:38.017Z,19.42
2023-11-25T06:03:08.138Z,22.67
2023-11-25T06:05:36.899Z,24.70
2023-11-25T06:08:05.585Z,24.58
2023-11-25T06:10:34.082Z,26.45
2023-11-25T06:13:04.943Z,23.77
2023-11-25T06:15:33.475Z,21.98
2023-11-25T06:18:02.156Z,21.17
2023-11-25T06:20:32.252Z,23.42
2023-11-25T06:23:00.856Z,23.67
2023-11-25T06:25:30.257Z,26.23
2023-11-25T06:27:58.935Z,23.90
2023-11-25T06:30:27.416Z,20.58
2023-11-25T06:32:55.974Z,20.85
2023-11-25T06:35:27.080Z,19.45
2023-11-25T06:37:57.173Z,17.95
2023-11-25T06:40:25.915Z,17.08
2023-11-25T06:42:55.045Z,17.08
2023-11-25T06:45:23.799Z,15.95
2023-11-25T06:47:52.383Z,15.35
2023-11-25T06:50:21.782Z,16.08
2023-11-25T06:52:50.899Z,15.32
2023-11-25T06:55:21.902Z,15.07
2023-11-25T06:57:51.533Z,15.05
2023-11-25T07:00:20.663Z,18.33
2023-11-25T07:02:49.719Z,16.42
2023-11-25T07:05:18.970Z,16.83
2023-11-25T07:07:46.531Z,16.33
2023-11-25T07:10:16.010Z,14.90
2023-11-25T07:12:46.706Z,15.23
2023-11-25T07:15:15.594Z,15.70
2023-11-25T07:17:45.096Z,16.10
2023-11-25T07:20:19.627Z,17.50
2023-11-25T07:22:48.549Z,17.00
2023-11-25T07:25:19.840Z,16.20
2023-11-25T07:27:51.476Z,16.20
2023-11-25T07:30:20.069Z,17.02
2023-11-25T07:32:49.099Z,17.02
2023-11-25T07:35:17.950Z,17.90
2023-11-25T07:37:46.553Z,17.33
2023-11-25T07:40:16.934Z,18.48
2023-11-25T07:42:50.395Z,15.43
2023-11-25T07:45:20.864Z,26.65
2023-11-25T07:47:49.513Z,19.75
2023-11-25T07:50:18.741Z,18.05
2023-11-25T07:52:48.803Z,15.60
2023-11-25T07:55:18.295Z,15.45
2023-11-25T07:57:48.914Z,36.45
2023-11-25T08:00:20.821Z,17.30
2023-11-25T08:02:51.546Z,20.55
2023-11-25T08:05:26.414Z,16.83
2023-11-25T08:07:56.195Z,20.55
2023-11-25T08:10:32.662Z,27.48
2023-11-25T08:13:01.573Z,19.88
2023-11-25T08:15:30.624Z,20.90
2023-11-25T08:18:01.112Z,18.80
2023-11-25T08:20:29.801Z,45.90
2023-11-25T08:22:58.439Z,28.05
2023-11-25T08:25:27.364Z,32.42
2023-11-25T08:27:55.932Z,31.15
2023-11-25T08:30:24.739Z,22.65
2023-11-25T08:32:53.408Z,25.60
2023-11-25T08:35:23.403Z,16.77
2023-11-25T08:37:51.905Z,20.75
2023-11-25T08:40:23.277Z,17.67
2023-11-25T08:42:52.757Z,16.88
2023-11-25T08:45:21.807Z,16.20
2023-11-25T08:47:50.984Z,15.80
2023-11-25T08:50:20.369Z,15.88
2023-11-25T08:52:52.271Z,17.67
2023-11-25T08:55:23.635Z,15.43
2023-11-25T08:57:53.631Z,15.45
2023-11-25T09:00:22.756Z,14.70
2023-11-25T09:02:53.875Z,13.55
2023-11-25T09:05:24.680Z,13.02
2023-11-25T09:07:57.075Z,13.68
2023-11-25T09:10:28.055Z,14.02
2023-11-25T09:12:57.031Z,13.98
2023-11-25T09:15:26.037Z,14.98
2023-11-25T09:17:54.724Z,14.55
2023-11-25T09:20:23.731Z,13.93
2023-11-25T09:22:53.558Z,14.25
2023-11-25T09:25:24.923Z,13.70
2023-11-25T09:27:53.745Z,14.18
2023-11-25T09:30:24.365Z,14.65
2023-11-25T09:32:54.863Z,14.48
2023-11-25T09:35:24.167Z,14.40
2023-11-25T09:37:53.002Z,24.33
2023-11-25T09:40:21.974Z,17.23
2023-11-25T09:42:52.175Z,20.80
2023-11-25T09:45:29.878Z,19.20
2023-11-25T09:47:58.645Z,21.08
2023-11-25T09:50:27.207Z,19.73
2023-11-25T09:52:57.005Z,21.15
2023-11-25T09:55:26.474Z,16.38
2023-11-25T09:58:04.637Z,24.90
2023-11-25T10:00:34.199Z,18.73
2023-11-25T10:03:03.965Z,21.95
2023-11-25T10:05:33.816Z,20.25
2023-11-25T10:08:02.840Z,20.27
2023-11-25T10:10:31.713Z,26.20
2023-11-25T10:13:04.581Z,30.48
2023-11-25T10:15:34.400Z,22.55
2023-11-25T10:18:02.984Z,26.60
2023-11-25T10:20:32.100Z,21.30
2023-11-25T10:23:00.773Z,23.08
2023-11-25T10:25:29.836Z,19.77
2023-11-25T10:27:58.942Z,20.60
2023-11-25T10:30:30.056Z,20.88
2023-11-25T10:33:02.960Z,20.27
2023-11-25T10:35:31.680Z,21.48
2023-11-25T10:38:00.398Z,20.52
2023-11-25T10:40:29.405Z,25.13
2023-11-25T10:43:03.350Z,21.70
2023-11-25T10:45:33.968Z,23.33
2023-11-25T10:48:04.142Z,22.27
2023-11-25T10:50:33.746Z,21.98
2023-11-25T10:53:06.677Z,20.98
2023-11-25T10:55:36.177Z,23.70
2023-11-25T10:58:06.684Z,25.40
2023-11-25T11:00:37.229Z,29.02
2023-11-25T11:03:10.802Z,28.40
2023-11-25T11:05:47.073Z,24.05
2023-11-25T11:08:20.326Z,22.92
2023-11-25T11:11:00.549Z,24.17
2023-11-25T11:13:34.093Z,26.67
2023-11-25T11:16:13.744Z,29.48
2023-11-25T11:18:45.543Z,22.60
2023-11-25T11:21:17.352Z,22.45
2023-11-25T11:23:46.298Z,27.15
2023-11-25T11:26:28.722Z,28.42
2023-11-25T11:29:10.066Z,24.50
2023-11-25T11:32:04.689Z,22.75
2023-11-25T11:34:35.469Z,21.30
2023-11-25T11:37:07.536Z,20.95
2023-11-25T11:39:40.043Z,20.60
2023-11-25T11:42:30.914Z,27.70
2023-11-25T11:45:12.940Z,38.92
2023-11-25T11:47:47.229Z,26.73
2023-11-25T11:50:20.527Z,30.83
2023-11-25T11:52:51.984Z,38.90
2023-11-25T11:55:39.056Z,36.55
2023-11-25T11:58:09.537Z,47.67
2023-11-25T12:00:41.258Z,47.25
2023-11-25T12:03:11.720Z,196.55
2023-11-25T12:05:40.630Z,199.30
2023-11-25T12:08:09.536Z,115.43
2023-11-25T12:10:39.153Z,77.50
2023-11-25T12:13:09.984Z,59.58
2023-11-25T12:15:38.938Z,38.97
2023-11-25T12:18:08.526Z,39.50
2023-11-25T12:20:38.717Z,35.90
2023-11-25T12:23:10.058Z,37.83
2023-11-25T12:25:39.100Z,47.83
2023-11-25T12:28:09.481Z,50.10
2023-11-25T12:30:39.712Z,66.97
2023-11-25T12:33:10.009Z,57.25
2023-11-25T12:35:42.685Z,63.88
2023-11-25T12:38:15.685Z,62.90
2023-11-25T12:40:47.599Z,66.65
2023-11-25T12:43:17.511Z,63.58
2023-11-25T12:45:48.196Z,67.93
2023-11-25T12:48:31.360Z,62.50
2023-11-25T12:51:04.746Z,62.17
2023-11-25T12:53:34.160Z,65.55
2023-11-25T12:56:03.081Z,62.58
2023-11-25T12:58:32.442Z,61.22
2023-11-25T13:01:01.132Z,55.10
2023-11-25T13:03:32.680Z,50.40
2023-11-25T13:06:05.722Z,52.83
2023-11-25T13:08:38.389Z,57.55
2023-11-25T13:11:10.714Z,56.15
2023-11-25T13:13:41.116Z,58.50
2023-11-25T13:16:14.409Z,57.85
2023-11-25T13:18:49.542Z,56.38
2023-11-25T13:21:19.966Z,48.63
2023-11-25T13:23:51.608Z,47.65
2023-11-25T13:26:20.433Z,46.20
2023-11-25T13:28:49.029Z,45.78
2023-11-25T13:31:17.871Z,48.42
2023-11-25T13:33:46.594Z,46.10
2023-11-25T13:36:15.473Z,44.10
2023-11-25T13:38:45.507Z,47.38
2023-11-25T13:41:14.216Z,44.15
2023-11-25T13:43:42.869Z,46.25
2023-11-25T13:46:11.500Z,41.45
2023-11-25T13:48:40.193Z,39.92
2023-11-25T13:51:10.259Z,41.17
2023-11-25T13:53:39.160Z,37.00
2023-11-25T13:56:11.399Z,38.30
2023-11-25T13:58:40.075Z,39.22
2023-11-25T14:01:08.675Z,34.50
2023-11-25T14:03:37.435Z,37.10
2023-11-25T14:06:06.370Z,33.67
2023-11-25T14:08:35.528Z,36.33
2023-11-25T14:11:05.640Z,44.67
2023-11-25T14:13:35.849Z,43.75
2023-11-25T14:16:04.450Z,44.60
2023-11-25T14:18:32.995Z,44.97
2023-11-25T14:21:01.440Z,42.97
2023-11-25T14:23:31.216Z,38.92
2023-11-25T14:26:00.099Z,41.30
2023-11-25T14:28:29.024Z,40.55
2023-11-25T14:30:59.158Z,37.42
2023-11-25T14:33:27.779Z,39.70
2023-11-25T14:35:56.436Z,39.65
2023-11-25T14:38:25.069Z,45.60
2023-11-25T14:40:54.280Z,44.35
2023-11-25T14:43:22.911Z,42.65
2023-11-25T14:45:52.088Z,45.90
2023-11-25T14:48:24.519Z,46.00
2023-11-25T14:50:54.093Z,53.72
2023-11-25T14:53:22.944Z,49.25
2023-11-25T14:55:51.960Z,54.70
2023-11-25T14:58:20.603Z,60.63
2023-11-25T15:00:49.363Z,66.35
2023-11-25T15:03:18.061Z,65.68
2023-11-25T15:05:48.275Z,64.93
2023-11-25T15:08:16.914Z,62.88
2023-11-25T15:10:47.927Z,59.08
2023-11-25T15:13:17.059Z,55.28
2023-11-25T15:15:47.819Z,54.47
2023-11-25T15:18:17.199Z,54.95
2023-11-25T15:20:47.817Z,59.35
2023-11-25T15:23:16.777Z,57.50
2023-11-25T15:25:45.976Z,59.42
2023-11-25T15:28:17.170Z,58.05
2023-11-25T15:30:46.550Z,57.13
2023-11-25T15:33:15.708Z,52.38
2023-11-25T15:35:44.630Z,46.63
2023-11-25T15:38:14.613Z,45.88
2023-11-25T15:40:43.272Z,43.70
2023-11-25T15:43:12.161Z,44.17
2023-11-25T15:45:41.193Z,49.65
2023-11-25T15:48:09.912Z,46.88
2023-11-25T15:50:40.224Z,43.10
2023-11-25T15:53:14.037Z,43.13
2023-11-25T15:55:44.234Z,42.42
2023-11-25T15:58:14.198Z,41.35
2023-11-25T16:00:43.006Z,42.83
2023-11-25T16:03:11.710Z,42.92
2023-11-25T16:05:40.531Z,42.53
2023-11-25T16:08:09.162Z,43.05
2023-11-25T16:10:40.140Z,39.70
2023-11-25T16:13:11.237Z,41.42
2023-11-25T16:15:39.814Z,38.80
2023-11-25T16:18:08.995Z,39.05
2023-11-25T16:20:41.442Z,39.38
2023-11-25T16:23:10.477Z,37.55
2023-11-25T16:25:39.229Z,40.20
2023-11-25T16:28:09.569Z,43.97
2023-11-25T16:30:38.147Z,46.33
2023-11-25T16:33:08.274Z,44.55
2023-11-25T16:35:38.028Z,41.83
2023-11-25T16:38:06.642Z,39.63
2023-11-25T16:40:36.138Z,42.42
2023-11-25T16:43:05.724Z,40.95
2023-11-25T16:48:05.814Z,42.13
2023-11-25T16:50:38.945Z,47.33
2023-11-25T16:53:09.208Z,61.08
2023-11-25T16:55:37.937Z,62.05
2023-11-25T16:58:06.572Z,80.10
2023-11-25T17:00:36.720Z,81.15
2023-11-25T17:03:06.133Z,75.97
2023-11-25T17:05:36.590Z,67.28
2023-11-25T17:08:08.168Z,61.60
2023-11-25T17:10:36.905Z,65.15
2023-11-25T17:13:05.459Z,59.17
2023-11-25T17:15:34.149Z,57.08
2023-11-25T17:18:04.729Z,47.60
2023-11-25T17:20:33.327Z,50.90
2023-11-25T17:23:02.569Z,44.70
2023-11-25T17:25:32.307Z,41.28
2023-11-25T17:28:01.018Z,43.33
2023-11-25T17:30:30.209Z,40.65
2023-11-25T17:32:58.986Z,39.75
2023-11-25T17:35:29.107Z,42.80
2023-11-25T17:37:58.116Z,48.10
2023-11-25T17:40:29.675Z,49.22
2023-11-25T17:42:58.359Z,49.20
2023-11-25T17:45:27.177Z,46.45
2023-11-25T17:47:56.145Z,48.75
2023-11-25T17:50:25.131Z,49.25
2023-11-25T17:53:06.482Z,49.03
2023-11-25T17:55:41.022Z,47.40
2023-11-25T17:58:09.840Z,44.78
2023-11-25T18:00:40.104Z,46.60
2023-11-25T18:03:12.622Z,45.05
2023-11-25T18:05:41.265Z,46.78
2023-11-25T18:08:11.358Z,46.38
2023-11-25T18:10:41.397Z,47.05
2023-11-25T18:13:10.328Z,46.17
2023-11-25T18:15:39.136Z,47.47
2023-11-25T18:18:08.089Z,45.08
2023-11-25T18:20:37.242Z,44.10
2023-11-25T18:23:06.059Z,42.72
2023-11-25T18:25:36.153Z,44.53
2023-11-25T18:28:05.039Z,45.20
2023-11-25T18:30:33.971Z,43.65
2023-11-25T18:33:03.227Z,45.85
2023-11-25T18:35:32.211Z,43.67
2023-11-25T18:38:00.901Z,46.80
2023-11-25T18:40:29.905Z,47.13
2023-11-25T18:43:02.327Z,50.65
2023-11-25T18:45:30.949Z,54.72
2023-11-25T18:47:59.434Z,56.75
2023-11-25T18:50:29.025Z,54.42
2023-11-25T18:52:57.743Z,62.63
2023-11-25T18:55:26.459Z,68.47
2023-11-25T18:57:54.887Z,60.80
2023-11-25T19:00:25.977Z,61.10
2023-11-25T19:02:54.691Z,61.92
2023-11-25T19:05:23.261Z,63.17
2023-11-25T19:07:52.116Z,56.33
2023-11-25T19:10:20.879Z,57.60
2023-11-25T19:12:49.944Z,57.58
2023-11-25T19:15:18.424Z,56.35
2023-11-25T19:17:48.505Z,59.03
2023-11-25T19:20:17.561Z,54.47
2023-11-25T19:22:46.310Z,56.42
2023-11-25T19:25:14.871Z,58.90
2023-11-25T19:27:43.903Z,56.85
2023-11-25T19:30:14.097Z,61.30
2023-11-25T19:32:42.727Z,64.10
2023-11-25T19:35:13.399Z,63.50
2023-11-25T19:37:42.095Z,63.33
2023-11-25T19:40:11.994Z,60.08
2023-11-25T19:42:42.249Z,65.75
2023-11-25T19:45:11.674Z,69.00
2023-11-25T19:47:40.211Z,72.43
2023-11-25T19:50:10.856Z,75.18
2023-11-25T19:52:40.949Z,76.93
2023-11-25T19:55:11.043Z,82.90
2023-11-25T19:57:39.772Z,81.95
2023-11-25T20:00:11.270Z,78.28
2023-11-25T20:02:42.881Z,78.18
2023-11-25T20:05:11.803Z,83.28
2023-11-25T20:07:43.118Z,79.60
2023-11-25T20:10:12.552Z,83.80
2023-11-25T20:12:41.557Z,85.40
2023-11-25T20:15:11.936Z,79.68
2023-11-25T20:17:40.767Z,73.97
2023-11-25T20:20:11.158Z,70.57
2023-11-25T20:22:42.289Z,71.55
2023-11-25T20:25:11.023Z,72.80
2023-11-25T20:27:39.721Z,70.22
2023-11-25T20:30:09.625Z,71.07
2023-11-25T20:32:38.233Z,64.20
2023-11-25T20:35:07.633Z,64.68
2023-11-25T20:37:36.245Z,59.88
2023-11-25T20:40:10.077Z,66.85
2023-11-25T20:42:38.753Z,65.85
2023-11-25T20:45:08.460Z,65.40
2023-11-25T20:47:37.590Z,69.40
2023-11-25T20:50:07.405Z,73.85
2023-11-25T20:52:36.289Z,73.38
2023-11-25T20:55:07.298Z,71.90
2023-11-25T20:57:35.930Z,67.43
2023-11-25T21:00:10.432Z,69.32
2023-11-25T21:02:40.961Z,65.45
2023-11-25T21:05:10.081Z,58.75
2023-11-25T21:07:42.286Z,56.90
2023-11-25T21:10:14.062Z,53.75
2023-11-25T21:12:43.576Z,53.72
2023-11-25T21:15:15.735Z,51.97
2023-11-25T21:17:45.032Z,53.25
2023-11-25T21:20:13.983Z,55.78
2023-11-25T21:22:42.844Z,53.83
2023-11-25T21:25:16.532Z,55.28
2023-11-25T21:27:46.045Z,52.90
2023-11-25T21:30:15.874Z,51.38
2023-11-25T21:32:44.684Z,55.05
2023-11-25T21:35:14.095Z,54.38
2023-11-25T21:37:43.762Z,55.45
2023-11-25T21:40:20.913Z,52.05
2023-11-25T21:42:52.516Z,54.13
2023-11-25T21:45:21.255Z,52.05
2023-11-25T21:47:49.813Z,54.13
2023-11-25T21:50:18.772Z,50.15
2023-11-25T21:52:47.596Z,58.47
2023-11-25T21:55:17.614Z,54.20
2023-11-25T21:57:46.633Z,62.20
2023-11-25T22:00:16.782Z,51.70
2023-11-25T22:02:45.710Z,54.28
2023-11-25T22:05:14.698Z,56.95
2023-11-25T22:07:43.584Z,60.20
2023-11-25T22:10:24.329Z,57.42
2023-11-25T22:12:58.380Z,59.15
2023-11-25T22:15:27.183Z,55.17
2023-11-25T22:17:55.927Z,55.85
2023-11-25T22:20:26.183Z,57.45
2023-11-25T22:22:56.088Z,59.72
2023-11-25T22:25:35.494Z,56.33
2023-11-25T22:28:10.956Z,59.75
2023-11-25T22:30:39.841Z,57.28
2023-11-25T22:33:08.962Z,57.72
2023-11-25T22:35:47.882Z,57.00
2023-11-25T22:38:22.405Z,55.50
2023-11-25T22:40:51.035Z,58.35
2023-11-25T22:43:21.132Z,56.92
2023-11-25T22:45:49.703Z,58.70
2023-11-25T22:48:20.209Z,54.60
2023-11-25T22:50:49.863Z,55.90
2023-11-25T22:53:18.365Z,53.65
2023-11-25T22:55:47.019Z,52.60
2023-11-25T22:58:15.726Z,52.78
2023-11-25T23:00:51.246Z,52.97
2023-11-25T23:03:21.068Z,50.55
2023-11-25T23:05:50.092Z,51.83
2023-11-25T23:08:21.112Z,51.97
2023-11-25T23:10:50.054Z,53.30
2023-11-25T23:13:18.995Z,49.50
2023-11-25T23:15:49.066Z,51.70
2023-11-25T23:18:18.408Z,48.10
2023-11-25T23:20:47.067Z,49.15
2023-11-25T23:23:15.676Z,47.50
2023-11-25T23:25:48.220Z,49.17
2023-11-25T23:28:17.938Z,47.55
2023-11-25T23:30:46.590Z,46.38
2023-11-25T23:33:16.674Z,47.58
2023-11-25T23:35:45.380Z,45.92
2023-11-25T23:38:13.912Z,45.22
2023-11-25T23:40:42.358Z,45.40
2023-11-25T23:43:11.688Z,44.72
2023-11-25T23:45:41.849Z,42.58
2023-11-25T23:48:11.460Z,41.53
2023-11-25T23:50:42.134Z,40.78
2023-11-25T23:53:10.854Z,40.97
2023-11-25T23:55:40.461Z,40.08
2023-11-25T23:58:09.150Z,40.55
